Time;durP1;ratioP1;P1;durP2;ratioP2;P2;SDS_P1;SDS_P2;PMS_P1;PMS_P2;Temp;Humidity;BMP_temperature;BMP_pressure;BME280_temperature;BME280_humidity;BME280_pressure;Samples;Min_cycle;Max_cycle;Signal;HPM_P1;HPM_P2
2023/12/04 00:00:57;;;;;;;1.10;0.77;;;;;;;;;;5001909;28;20221;-87
2023/12/04 00:03:38;;;;;;;2.03;1.83;;;;;;;;;;5003202;28;20266;-85
2023/12/04 00:06:14;;;;;;;2.17;1.43;;;;;;;;;;5003701;28;20252;-86
2023/12/04 00:08:46;;;;;;;1.63;1.53;;;;;;;;;;5022759;28;20207;-86
2023/12/04 00:11:19;;;;;;;3.20;2.23;;;;;;;;;;5040478;28;20582;-87
2023/12/04 00:14:17;;;;;;;5.33;2.23;;;;;;;;;;5038656;28;20202;-87
2023/12/04 00:16:51;;;;;;;2.70;2.00;;;;;;;;;;5036956;28;20477;-87
2023/12/04 00:19:26;;;;;;;1.50;1.40;;;;;;;;;;5039088;28;20202;-87
2023/12/04 00:22:02;;;;;;;2.47;2.00;;;;;;;;;;5038028;28;20226;-87
2023/12/04 00:24:50;;;;;;;;;;;;;;;;;;;;;
2023/12/04 00:27:26;;;;;;;1.47;1.40;;;;;;;;;;5014992;28;20215;-88
2023/12/04 00:29:54;;;;;;;1.73;1.63;;;;;;;;;;5014687;28;20204;-86
2023/12/04 00:32:22;;;;;;;1.70;1.60;;;;;;;;;;5014589;28;20228;-86
2023/12/04 00:34:52;;;;;;;2.87;2.10;;;;;;;;;;5013684;28;20836;-87
2023/12/04 00:37:22;;;;;;;1.67;1.57;;;;;;;;;;5014012;28;20642;-86
2023/12/04 00:39:52;;;;;;;2.07;1.87;;;;;;;;;;5016575;28;20248;-83
2023/12/04 00:42:22;;;;;;;1.70;1.40;;;;;;;;;;5016201;28;20291;-87
2023/12/04 00:44:53;;;;;;;2.43;1.40;;;;;;;;;;5012752;28;20291;-86
2023/12/04 00:47:21;;;;;;;1.97;1.87;;;;;;;;;;5013172;28;20219;-87
2023/12/04 00:49:50;;;;;;;1.73;1.63;;;;;;;;;;5013530;28;20205;-87
2023/12/04 00:52:22;;;;;;;3.17;2.00;;;;;;;;;;5014659;28;20577;-87
2023/12/04 00:54:49;;;;;;;2.17;1.97;;;;;;;;;;5014676;28;20205;-87
2023/12/04 00:57:17;;;;;;;2.53;2.07;;;;;;;;;;5013888;28;20205;-87
2023/12/04 00:59:46;;;;;;;13.00;2.43;;;;;;;;;;5011841;28;20728;-86
2023/12/04 01:02:17;;;;;;;5.43;1.57;;;;;;;;;;5012039;28;20197;-88
2023/12/04 01:04:47;;;;;;;2.23;1.93;;;;;;;;;;5004613;28;20201;-87
2023/12/04 01:07:17;;;;;;;6.73;2.17;;;;;;;;;;4993884;28;20197;-85
2023/12/04 01:09:46;;;;;;;2.27;2.03;;;;;;;;;;4996200;28;20705;-87
2023/12/04 01:12:17;;;;;;;1.60;1.50;;;;;;;;;;4999364;28;20654;-86
2023/12/04 01:14:45;;;;;;;2.03;1.93;;;;;;;;;;4995693;28;20201;-87
2023/12/04 01:17:17;;;;;;;1.07;1.07;;;;;;;;;;4998511;28;20237;-86
2023/12/04 01:19:47;;;;;;;2.37;1.83;;;;;;;;;;4998553;28;20269;-87
2023/12/04 01:22:17;;;;;;;2.60;2.40;;;;;;;;;;4996942;28;20205;-87
2023/12/04 01:24:47;;;;;;;1.87;1.77;;;;;;;;;;4996507;28;20210;-88
2023/12/04 01:27:15;;;;;;;3.13;2.83;;;;;;;;;;4998635;28;20198;-87
2023/12/04 01:29:43;;;;;;;3.37;2.53;;;;;;;;;;4997020;28;20189;-87
2023/12/04 01:32:14;;;;;;;4.43;3.97;;;;;;;;;;4997257;28;20205;-88
2023/12/04 01:34:42;;;;;;;3.40;2.67;;;;;;;;;;5010485;28;20192;-86
2023/12/04 01:37:15;;;;;;;3.63;3.00;;;;;;;;;;5035141;28;20238;-87
2023/12/04 01:39:50;;;;;;;3.23;2.30;;;;;;;;;;5035466;28;20224;-87
2023/12/04 01:42:18;;;;;;;4.90;3.03;;;;;;;;;;5035500;28;20611;-86
2023/12/04 01:44:50;;;;;;;4.77;2.10;;;;;;;;;;5033965;28;20208;-86
2023/12/04 01:47:29;;;;;;;3.00;2.67;;;;;;;;;;5035279;28;20204;-86
2023/12/04 01:49:57;;;;;;;2.03;1.90;;;;;;;;;;5036028;28;20278;-86
2023/12/04 01:52:24;;;;;;;4.17;2.93;;;;;;;;;;5035246;28;20216;-87
2023/12/04 01:54:53;;;;;;;3.63;2.87;;;;;;;;;;5038454;28;20204;-87
2023/12/04 01:57:22;;;;;;;2.93;2.73;;;;;;;;;;5042152;28;20259;-86
2023/12/04 01:59:51;;;;;;;4.17;2.77;;;;;;;;;;5041102;28;20281;-87
2023/12/04 02:02:20;;;;;;;3.97;1.83;;;;;;;;;;5040216;28;20589;-85
2023/12/04 02:04:47;;;;;;;3.73;2.13;;;;;;;;;;5028127;28;20317;-87
2023/12/04 02:07:15;;;;;;;4.70;2.87;;;;;;;;;;5014506;28;20204;-87
2023/12/04 02:09:46;;;;;;;3.93;2.77;;;;;;;;;;5015283;28;20606;-87
2023/12/04 02:12:21;;;;;;;2.50;2.33;;;;;;;;;;5014694;28;20260;-87
2023/12/04 02:14:51;;;;;;;5.27;1.93;;;;;;;;;;5014880;28;20239;-85
2023/12/04 02:17:23;;;;;;;2.50;2.27;;;;;;;;;;5015072;28;20255;-87
2023/12/04 02:19:52;;;;;;;1.83;1.67;;;;;;;;;;5014360;28;20205;-87
2023/12/04 02:22:28;;;;;;;3.30;2.10;;;;;;;;;;5018221;28;20199;-86
2023/12/04 02:25:00;;;;;;;3.47;1.70;;;;;;;;;;5024194;28;20204;-87
2023/12/04 02:27:29;;;;;;;3.30;2.40;;;;;;;;;;5040823;28;20203;-87
2023/12/04 02:29:58;;;;;;;1.77;1.67;;;;;;;;;;5045427;28;20214;-86
2023/12/04 02:32:29;;;;;;;2.13;1.33;;;;;;;;;;5041880;28;20227;-85
2023/12/04 02:34:57;;;;;;;2.00;1.80;;;;;;;;;;5010489;28;20205;-87
2023/12/04 02:37:25;;;;;;;2.90;2.50;;;;;;;;;;4995389;28;20236;-88
2023/12/04 02:39:54;;;;;;;2.13;1.80;;;;;;;;;;5000780;28;20255;-87
2023/12/04 02:42:27;;;;;;;1.43;1.33;;;;;;;;;;5030640;28;20258;-86
2023/12/04 02:44:58;;;;;;;7.73;1.63;;;;;;;;;;5010937;28;20209;-88
2023/12/04 02:47:29;;;;;;;3.37;2.27;;;;;;;;;;5011905;28;20227;-87
2023/12/04 02:50:00;;;;;;;4.43;2.30;;;;;;;;;;5017821;28;20311;-86
2023/12/04 02:52:32;;;;;;;4.37;2.17;;;;;;;;;;5014169;28;20204;-86
2023/12/04 02:55:06;;;;;;;2.43;2.00;;;;;;;;;;5024816;28;20230;-87
2023/12/04 02:57:48;;;;;;;2.63;2.40;;;;;;;;;;5013684;28;20259;-85
2023/12/04 03:03:37;;;;;;;;;;;;;;;;;;;;;
2023/12/04 03:06:06;;;;;;;2.00;1.87;;;;;;;;;;5014137;28;20196;-87
2023/12/04 03:08:38;;;;;;;2.43;2.23;;;;;;;;;;5014197;28;20231;-86
2023/12/04 03:11:18;;;;;;;3.77;3.27;;;;;;;;;;5015157;28;20621;-86
2023/12/04 03:13:52;;;;;;;1.87;1.77;;;;;;;;;;5013865;28;20192;-86
2023/12/04 03:16:21;;;;;;;3.53;2.63;;;;;;;;;;5013350;28;20238;-87
2023/12/04 03:18:51;;;;;;;3.70;3.50;;;;;;;;;;5014020;28;20230;-86
2023/12/04 03:21:19;;;;;;;3.40;2.03;;;;;;;;;;5015152;28;20201;-87
2023/12/04 03:23:47;;;;;;;1.80;1.70;;;;;;;;;;5018034;28;20231;-86
2023/12/04 03:26:14;;;;;;;5.03;1.70;;;;;;;;;;4996113;28;20232;-86
2023/12/04 03:28:43;;;;;;;2.40;2.20;;;;;;;;;;4995202;28;20201;-86
2023/12/04 03:31:14;;;;;;;3.23;1.80;;;;;;;;;;4994063;28;20212;-86
2023/12/04 03:33:44;;;;;;;1.90;1.80;;;;;;;;;;4995368;28;20201;-87
2023/12/04 03:36:18;;;;;;;3.20;1.73;;;;;;;;;;4994522;28;20240;-87
2023/12/04 03:38:46;;;;;;;1.43;1.33;;;;;;;;;;4992651;28;20231;-87
2023/12/04 03:41:16;;;;;;;2.73;2.53;;;;;;;;;;4994143;28;20306;-87
2023/12/04 03:43:50;;;;;;;3.33;1.83;;;;;;;;;;4995304;28;20441;-87
2023/12/04 03:46:27;;;;;;;2.33;2.17;;;;;;;;;;4995936;28;20200;-87
2023/12/04 03:48:57;;;;;;;5.50;2.57;;;;;;;;;;4995165;28;20208;-88
2023/12/04 03:51:26;;;;;;;2.33;1.43;;;;;;;;;;5004847;28;20201;-86
2023/12/04 03:53:57;;;;;;;3.73;2.30;;;;;;;;;;5009138;28;20271;-86
2023/12/04 03:56:25;;;;;;;2.53;1.93;;;;;;;;;;5003035;28;20308;-87
2023/12/04 03:58:53;;;;;;;1.60;1.50;;;;;;;;;;4995072;28;20197;-87
2023/12/04 04:01:22;;;;;;;2.27;1.90;;;;;;;;;;5003180;28;20201;-86
2023/12/04 04:03:53;;;;;;;2.77;2.53;;;;;;;;;;5011622;28;20205;-87
2023/12/04 04:06:21;;;;;;;3.07;2.87;;;;;;;;;;5004136;28;20198;-87
2023/12/04 04:08:52;;;;;;;2.27;1.80;;;;;;;;;;4993555;28;20194;-86
2023/12/04 04:11:23;;;;;;;3.00;2.70;;;;;;;;;;4994093;28;20201;-87
2023/12/04 04:13:56;;;;;;;6.00;2.50;;;;;;;;;;4992744;28;20684;-87
2023/12/04 04:16:26;;;;;;;2.77;2.10;;;;;;;;;;4993454;28;20209;-86
2023/12/04 04:18:55;;;;;;;1.53;1.53;;;;;;;;;;4992593;28;20193;-86
2023/12/04 04:21:24;;;;;;;2.13;1.97;;;;;;;;;;4993736;28;20201;-87
2023/12/04 04:23:53;;;;;;;2.27;2.07;;;;;;;;;;4994027;28;20209;-88
2023/12/04 04:26:25;;;;;;;3.77;1.87;;;;;;;;;;5017686;28;20207;-87
2023/12/04 04:29:00;;;;;;;3.60;2.07;;;;;;;;;;5021326;28;20204;-87
2023/12/04 04:31:38;;;;;;;1.97;1.40;;;;;;;;;;5020931;28;20666;-87
2023/12/04 04:34:08;;;;;;;2.77;1.60;;;;;;;;;;5030704;28;20211;-87
2023/12/04 04:36:49;;;;;;;2.83;1.77;;;;;;;;;;5012424;28;20236;-87
2023/12/04 04:39:18;;;;;;;2.07;1.90;;;;;;;;;;4992614;28;20252;-87
2023/12/04 04:41:46;;;;;;;1.37;1.20;;;;;;;;;;4994560;28;20697;-85
2023/12/04 04:44:14;;;;;;;3.23;2.30;;;;;;;;;;4994559;28;20200;-86
2023/12/04 04:46:49;;;;;;;3.10;2.17;;;;;;;;;;4993169;28;20236;-86
2023/12/04 04:49:20;;;;;;;2.50;2.40;;;;;;;;;;4994833;28;20196;-88
2023/12/04 04:51:52;;;;;;;3.70;2.50;;;;;;;;;;4998058;28;20191;-87
2023/12/04 04:54:24;;;;;;;1.87;1.77;;;;;;;;;;4997388;28;20205;-87
2023/12/04 04:57:00;;;;;;;3.07;2.20;;;;;;;;;;4997822;28;20251;-88
2023/12/04 04:59:30;;;;;;;3.10;2.20;;;;;;;;;;4997406;28;20482;-88
2023/12/04 05:04:44;;;;;;;2.90;2.77;;;;;;;;;;4997096;28;20343;-87
2023/12/04 05:07:18;;;;;;;3.93;2.63;;;;;;;;;;5006698;28;20200;-88
2023/12/04 05:09:59;;;;;;;3.23;2.37;;;;;;;;;;5038174;28;20440;-87
2023/12/04 05:12:37;;;;;;;1.90;1.83;;;;;;;;;;5056368;28;20362;-86
2023/12/04 05:15:18;;;;;;;2.37;2.17;;;;;;;;;;5019759;28;20680;-88
2023/12/04 05:17:52;;;;;;;10.13;2.37;;;;;;;;;;5036663;28;20282;-85
2023/12/04 05:20:26;;;;;;;3.30;1.83;;;;;;;;;;5036022;28;20195;-86
2023/12/04 05:22:56;;;;;;;3.47;3.10;;;;;;;;;;5036845;28;20204;-87
2023/12/04 05:25:24;;;;;;;1.40;1.30;;;;;;;;;;5036487;28;20629;-86
2023/12/04 05:27:58;;;;;;;2.50;1.90;;;;;;;;;;5037378;28;20218;-87
2023/12/04 05:30:55;;;;;;;1.93;1.83;;;;;;;;;;5035534;28;20204;-87
2023/12/04 05:33:35;;;;;;;5.10;2.83;;;;;;;;;;5037854;28;20730;-88
2023/12/04 05:36:07;;;;;;;5.23;3.03;;;;;;;;;;5023604;28;20235;-87
2023/12/04 05:38:53;;;;;;;3.00;2.80;;;;;;;;;;5024823;28;20244;-87
2023/12/04 05:44:30;;;;;;;3.77;2.83;;;;;;;;;;5020472;28;20208;-88
2023/12/04 05:47:08;;;;;;;5.73;3.13;;;;;;;;;;5027239;28;20241;-88
2023/12/04 05:49:40;;;;;;;4.07;2.07;;;;;;;;;;5026994;28;20257;-88
2023/12/04 05:52:11;;;;;;;4.50;2.60;;;;;;;;;;5014628;28;20255;-88
2023/12/04 05:54:44;;;;;;;2.67;2.47;;;;;;;;;;5018082;28;20205;-86
2023/12/04 05:57:16;;;;;;;2.50;2.40;;;;;;;;;;5017171;28;20238;-88
2023/12/04 05:59:53;;;;;;;4.67;2.40;;;;;;;;;;5017372;28;20221;-88
2023/12/04 06:02:37;;;;;;;;;;;;;;;;;;;;;
2023/12/04 06:05:26;;;;;;;2.27;2.07;;;;;;;;;;5019115;28;20192;-87
2023/12/04 06:08:21;;;;;;;2.13;2.03;;;;;;;;;;5017580;28;20255;-89
2023/12/04 06:11:08;;;;;;;3.07;2.63;;;;;;;;;;5019514;28;20201;-89
2023/12/04 06:13:44;;;;;;;3.50;2.33;;;;;;;;;;5027127;28;20208;-86
2023/12/04 06:16:41;;;;;;;4.03;3.30;;;;;;;;;;5020585;28;20197;-86
2023/12/04 06:19:14;;;;;;;5.80;3.23;;;;;;;;;;5012343;28;20566;-87
2023/12/04 06:21:54;;;;;;;4.20;3.43;;;;;;;;;;5008814;28;20205;-87
2023/12/04 06:24:28;;;;;;;4.27;2.70;;;;;;;;;;5012830;28;20205;-87
2023/12/04 06:27:12;;;;;;;3.80;3.50;;;;;;;;;;5012150;28;20224;-87
2023/12/04 06:29:47;;;;;;;5.77;3.33;;;;;;;;;;5013405;28;20264;-87
2023/12/04 06:32:26;;;;;;;3.23;2.17;;;;;;;;;;5012978;28;20201;-88
2023/12/04 06:34:58;;;;;;;6.90;3.40;;;;;;;;;;5008184;28;20652;-88
2023/12/04 06:37:30;;;;;;;2.87;2.77;;;;;;;;;;5004505;28;20213;-87
2023/12/04 06:40:08;;;;;;;2.60;2.20;;;;;;;;;;5003148;28;20221;-88
2023/12/04 06:42:38;;;;;;;2.50;2.40;;;;;;;;;;5003353;28;20208;-88
2023/12/04 06:45:12;;;;;;;2.93;2.70;;;;;;;;;;5006222;28;20733;-88
2023/12/04 06:47:45;;;;;;;3.70;3.03;;;;;;;;;;5004071;28;20212;-87
2023/12/04 06:53:05;;;;;;;3.23;3.00;;;;;;;;;;4993376;28;20316;-87
2023/12/04 06:58:29;;;;;;;3.30;3.03;;;;;;;;;;4992363;28;20750;-87
2023/12/04 07:01:01;;;;;;;8.47;2.83;;;;;;;;;;5000154;28;20260;-87
2023/12/04 07:03:32;;;;;;;8.70;3.57;;;;;;;;;;5004474;28;20209;-86
2023/12/04 07:06:24;;;;;;;4.17;2.60;;;;;;;;;;5013188;28;20727;-89
2023/12/04 07:08:55;;;;;;;3.27;3.00;;;;;;;;;;5006808;28;20683;-87
2023/12/04 07:11:54;;;;;;;5.27;3.00;;;;;;;;;;5033249;28;20208;-87
2023/12/04 07:14:41;;;;;;;8.17;2.83;;;;;;;;;;5021570;28;20217;-87
2023/12/04 07:20:24;;;;;;;2.77;2.57;;;;;;;;;;5015216;28;20737;-87
2023/12/04 07:23:03;;;;;;;5.87;3.43;;;;;;;;;;5026098;28;20212;-87
2023/12/04 07:25:48;;;;;;;3.37;3.07;;;;;;;;;;5016721;28;20275;-85
2023/12/04 07:28:32;;;;;;;2.97;2.77;;;;;;;;;;5014565;28;20283;-88
2023/12/04 07:31:06;;;;;;;4.00;3.43;;;;;;;;;;5016832;28;20223;-88
2023/12/04 07:34:05;;;;;;;2.97;2.77;;;;;;;;;;5025236;28;20256;-87
2023/12/04 07:36:36;;;;;;;3.93;2.90;;;;;;;;;;5027800;28;20204;-88
2023/12/04 07:39:06;;;;;;;5.27;3.37;;;;;;;;;;5026357;28;20236;-89
2023/12/04 07:41:37;;;;;;;3.57;3.27;;;;;;;;;;5029164;28;20284;-89
2023/12/04 07:44:17;;;;;;;3.40;2.80;;;;;;;;;;5026787;28;20220;-88
2023/12/04 07:47:01;;;;;;;4.83;2.43;;;;;;;;;;5029146;28;20268;-88
2023/12/04 07:49:30;;;;;;;3.40;3.10;;;;;;;;;;5025395;28;20216;-87
2023/12/04 07:52:07;;;;;;;6.47;2.67;;;;;;;;;;5015901;28;20181;-88
2023/12/04 07:54:37;;;;;;;4.07;2.53;;;;;;;;;;4996912;28;20239;-88
2023/12/04 07:57:09;;;;;;;4.67;3.07;;;;;;;;;;5019987;28;20212;-88
2023/12/04 07:59:42;;;;;;;4.40;2.50;;;;;;;;;;5035186;28;20215;-87
2023/12/04 08:02:29;;;;;;;3.20;2.80;;;;;;;;;;5052347;28;20215;-86
2023/12/04 08:05:10;;;;;;;2.93;2.73;;;;;;;;;;5030121;28;20236;-87
2023/12/04 08:07:47;;;;;;;3.40;3.10;;;;;;;;;;5010951;28;20212;-86
2023/12/04 08:10:17;;;;;;;7.90;3.10;;;;;;;;;;5028480;28;20227;-87
2023/12/04 08:12:51;;;;;;;2.53;2.43;;;;;;;;;;5024714;28;20235;-88
2023/12/04 08:15:21;;;;;;;3.87;2.67;;;;;;;;;;5042797;28;20289;-88
2023/12/04 08:18:31;;;;;;;3.97;2.70;;;;;;;;;;5008131;28;20738;-86
2023/12/04 08:24:04;;;;;;;3.37;3.13;;;;;;;;;;5020413;28;20220;-87
2023/12/04 08:26:38;;;;;;;4.23;3.17;;;;;;;;;;5045423;28;20296;-86
2023/12/04 08:29:21;;;;;;;5.73;3.67;;;;;;;;;;5047666;28;20222;-88
2023/12/04 08:32:01;;;;;;;;;;;;;;;;;;;;;
2023/12/04 08:34:36;;;;;;;1.63;1.53;;;;;;;;;;5053388;28;20220;-88
2023/12/04 08:37:04;;;;;;;3.43;1.93;;;;;;;;;;5053869;28;20231;-87
2023/12/04 08:39:35;;;;;;;3.13;2.90;;;;;;;;;;5053164;28;20310;-89
2023/12/04 08:42:04;;;;;;;2.57;2.00;;;;;;;;;;5051690;28;20227;-87
2023/12/04 08:44:40;;;;;;;1.83;1.73;;;;;;;;;;5051678;28;20218;-87
2023/12/04 08:47:07;;;;;;;1.80;1.70;;;;;;;;;;5048611;28;20216;-88
2023/12/04 08:49:47;;;;;;;2.57;2.13;;;;;;;;;;5033195;28;20216;-88
2023/12/04 08:52:16;;;;;;;2.67;2.23;;;;;;;;;;5032189;28;20231;-87
2023/12/04 08:54:56;;;;;;;2.73;2.53;;;;;;;;;;5034986;28;20220;-88
2023/12/04 08:57:32;;;;;;;2.80;1.90;;;;;;;;;;5013742;28;20230;-88
2023/12/04 09:00:03;;;;;;;21.07;2.43;;;;;;;;;;5015272;28;20224;-88
2023/12/04 09:02:55;;;;;;;1.93;1.83;;;;;;;;;;5014998;28;20228;-89
2023/12/04 09:05:27;;;;;;;2.30;2.10;;;;;;;;;;5010017;28;20288;-89
2023/12/04 09:07:58;;;;;;;1.97;1.87;;;;;;;;;;5013622;28;20224;-87
2023/12/04 09:10:27;;;;;;;1.80;1.70;;;;;;;;;;5013230;28;20239;-87
2023/12/04 09:12:55;;;;;;;2.20;2.10;;;;;;;;;;5012564;28;20320;-87
2023/12/04 09:15:28;;;;;;;1.77;1.63;;;;;;;;;;5012674;28;20232;-88
2023/12/04 09:17:59;;;;;;;2.37;2.17;;;;;;;;;;5011740;28;20322;-86
2023/12/04 09:20:42;;;;;;;1.90;1.80;;;;;;;;;;5028299;28;20208;-88
2023/12/04 09:23:15;;;;;;;1.80;1.70;;;;;;;;;;5030437;28;20229;-87
2023/12/04 09:25:50;;;;;;;1.67;1.57;;;;;;;;;;5030675;28;20247;-87
2023/12/04 09:28:21;;;;;;;1.80;1.70;;;;;;;;;;5033624;28;20236;-87
2023/12/04 09:30:51;;;;;;;1.73;1.63;;;;;;;;;;5033456;28;20227;-86
2023/12/04 09:33:27;;;;;;;1.80;1.70;;;;;;;;;;5031759;28;20205;-88
2023/12/04 09:35:59;;;;;;;1.83;1.53;;;;;;;;;;5023015;28;20678;-87
2023/12/04 09:38:27;;;;;;;2.57;2.20;;;;;;;;;;5016867;28;20737;-89
2023/12/04 09:40:57;;;;;;;1.90;1.80;;;;;;;;;;5016656;28;20286;-87
2023/12/04 09:43:26;;;;;;;2.50;2.30;;;;;;;;;;5021193;28;20229;-86
2023/12/04 09:46:01;;;;;;;1.77;1.63;;;;;;;;;;5020371;28;21412;-87
2023/12/04 09:48:43;;;;;;;3.33;2.33;;;;;;;;;;5016867;28;20228;-88
2023/12/04 09:51:25;;;;;;;2.17;1.80;;;;;;;;;;5018595;28;20235;-87
2023/12/04 09:54:19;;;;;;;1.97;1.87;;;;;;;;;;5017825;28;20227;-88
2023/12/04 09:56:59;;;;;;;1.80;1.70;;;;;;;;;;5017172;28;20251;-87
2023/12/04 09:59:30;;;;;;;3.27;1.87;;;;;;;;;;5015520;28;20689;-88
2023/12/04 10:02:03;;;;;;;2.43;2.23;;;;;;;;;;5015213;28;20229;-88
2023/12/04 10:04:38;;;;;;;1.83;1.73;;;;;;;;;;5014637;28;20239;-87
2023/12/04 10:07:10;;;;;;;1.87;1.77;;;;;;;;;;5015034;28;20299;-87
2023/12/04 10:09:38;;;;;;;1.80;1.70;;;;;;;;;;5014569;28;20228;-88
2023/12/04 10:12:08;;;;;;;2.17;2.07;;;;;;;;;;5016237;28;20216;-87
2023/12/04 10:14:37;;;;;;;1.67;1.67;;;;;;;;;;5014827;28;20322;-87
2023/12/04 10:17:17;;;;;;;2.97;2.20;;;;;;;;;;5015748;28;20220;-87
2023/12/04 10:19:49;;;;;;;2.23;2.13;;;;;;;;;;5017158;28;20873;-89
2023/12/04 10:22:22;;;;;;;7.80;2.07;;;;;;;;;;5026475;28;20289;-88
2023/12/04 10:25:01;;;;;;;2.50;2.30;;;;;;;;;;5021351;28;20610;-87
2023/12/04 10:27:29;;;;;;;2.30;2.20;;;;;;;;;;5015389;28;20319;-88
2023/12/04 10:29:58;;;;;;;2.20;2.10;;;;;;;;;;5013867;28;20290;-88
2023/12/04 10:32:25;;;;;;;2.23;1.90;;;;;;;;;;5013892;28;20635;-87
2023/12/04 10:35:03;;;;;;;;;;;;;;;;;;;;;
2023/12/04 10:37:46;;;;;;;2.53;2.33;;;;;;;;;;5013915;28;20216;-86
2023/12/04 10:40:25;;;;;;;3.00;2.10;;;;;;;;;;5013297;28;20682;-87
2023/12/04 10:42:56;;;;;;;3.63;2.40;;;;;;;;;;5014415;28;20712;-87
2023/12/04 10:45:46;;;;;;;2.07;1.93;;;;;;;;;;5015537;28;20307;-86
2023/12/04 10:51:05;;;;;;;5.07;2.10;;;;;;;;;;4996919;28;20627;-87
2023/12/04 10:53:41;;;;;;;2.33;2.20;;;;;;;;;;5015552;28;20663;-89
2023/12/04 10:56:12;;;;;;;2.43;2.23;;;;;;;;;;5013660;28;20232;-89
2023/12/04 10:58:48;;;;;;;2.00;1.90;;;;;;;;;;5014827;28;20236;-86
2023/12/04 11:01:21;;;;;;;2.10;2.00;;;;;;;;;;5015543;28;20239;-87
2023/12/04 11:04:00;;;;;;;2.00;1.90;;;;;;;;;;5023046;28;20227;-86
2023/12/04 11:06:36;;;;;;;2.53;1.63;;;;;;;;;;5023538;28;20230;-87
2023/12/04 11:09:47;;;;;;;2.17;2.07;;;;;;;;;;5012126;28;20240;-90
2023/12/04 11:12:21;;;;;;;2.67;1.90;;;;;;;;;;5013490;28;20295;-87
2023/12/04 11:14:57;;;;;;;2.20;2.10;;;;;;;;;;5013258;28;20303;-86
2023/12/04 11:17:26;;;;;;;2.07;1.97;;;;;;;;;;5014390;28;20681;-88
2023/12/04 11:19:57;;;;;;;3.40;2.90;;;;;;;;;;5010654;28;20454;-87
2023/12/04 11:22:27;;;;;;;3.27;2.50;;;;;;;;;;5022994;28;20768;-86
2023/12/04 11:24:56;;;;;;;4.20;2.57;;;;;;;;;;5019191;28;20307;-86
2023/12/04 11:27:25;;;;;;;3.10;2.80;;;;;;;;;;5017291;28;20310;-87
2023/12/04 11:29:54;;;;;;;3.23;2.80;;;;;;;;;;5016958;28;20307;-88
2023/12/04 11:32:27;;;;;;;2.63;2.53;;;;;;;;;;5015143;28;20228;-87
2023/12/04 11:35:05;;;;;;;4.30;3.37;;;;;;;;;;5013508;28;20223;-90
2023/12/04 11:37:38;;;;;;;3.30;2.23;;;;;;;;;;5014510;28;20239;-86
2023/12/04 11:40:22;;;;;;;3.37;2.27;;;;;;;;;;5020733;28;20233;-86
2023/12/04 11:43:00;;;;;;;4.70;1.93;;;;;;;;;;5016210;28;20236;-86
2023/12/04 11:45:36;;;;;;;3.00;2.80;;;;;;;;;;5016055;28;20240;-85
2023/12/04 11:51:47;;;;;;;2.83;2.63;;;;;;;;;;4950549;28;20242;-86
2023/12/04 11:54:25;;;;;;;4.03;2.50;;;;;;;;;;4957981;29;20240;-89
2023/12/04 11:57:02;;;;;;;2.20;2.10;;;;;;;;;;4989212;28;20236;-87
2023/12/04 11:59:56;;;;;;;2.60;2.40;;;;;;;;;;5025262;28;20243;-86
2023/12/04 12:02:36;;;;;;;2.33;2.20;;;;;;;;;;5018176;28;20228;-87
2023/12/04 12:05:17;;;;;;;2.63;2.43;;;;;;;;;;5016358;28;20762;-87
2023/12/04 12:08:07;;;;;;;2.27;1.83;;;;;;;;;;5013810;28;20240;-87
2023/12/04 12:10:36;;;;;;;3.63;2.40;;;;;;;;;;5005397;28;20725;-86
2023/12/04 12:13:06;;;;;;;4.83;2.73;;;;;;;;;;5011835;28;20705;-89
2023/12/04 12:15:34;;;;;;;2.37;2.20;;;;;;;;;;5014601;28;20306;-89
2023/12/04 12:18:07;;;;;;;3.33;3.03;;;;;;;;;;5014605;28;20196;-86
2023/12/04 12:20:40;;;;;;;3.53;2.57;;;;;;;;;;5014357;28;20904;-88
2023/12/04 12:23:10;;;;;;;2.73;2.30;;;;;;;;;;5012862;28;20259;-87
2023/12/04 12:25:38;;;;;;;5.03;2.53;;;;;;;;;;5013248;28;20189;-88
2023/12/04 12:28:08;;;;;;;6.43;2.83;;;;;;;;;;5014407;28;20280;-87
2023/12/04 12:30:45;;;;;;;3.30;3.00;;;;;;;;;;5016369;28;20291;-88
2023/12/04 12:33:56;;;;;;;;;;;;;;;;;;;;;
2023/12/04 12:36:25;;;;;;;5.23;3.00;;;;;;;;;;5034641;28;20200;-88
2023/12/04 12:38:53;;;;;;;3.47;2.63;;;;;;;;;;5034512;28;20275;-88
2023/12/04 12:41:21;;;;;;;4.27;2.83;;;;;;;;;;5028771;28;20320;-87
2023/12/04 12:43:53;;;;;;;3.37;2.87;;;;;;;;;;5013993;28;20271;-88
2023/12/04 12:46:25;;;;;;;3.20;3.00;;;;;;;;;;5013877;28;20189;-89
2023/12/04 12:48:54;;;;;;;13.13;4.30;;;;;;;;;;5014602;28;20271;-88
2023/12/04 12:51:25;;;;;;;4.63;3.43;;;;;;;;;;5014270;28;20196;-89
2023/12/04 12:53:52;;;;;;;6.13;3.57;;;;;;;;;;5013704;28;20197;-86
2023/12/04 12:56:21;;;;;;;6.00;2.90;;;;;;;;;;5013124;28;20744;-88
2023/12/04 12:58:51;;;;;;;2.83;2.63;;;;;;;;;;5013559;28;20219;-87
2023/12/04 13:04:29;;;;;;;4.07;2.50;;;;;;;;;;5013071;28;20345;-87
2023/12/04 13:07:01;;;;;;;3.40;2.40;;;;;;;;;;5012789;28;20279;-88
2023/12/04 13:09:30;;;;;;;3.90;2.13;;;;;;;;;;5013352;28;20251;-88
2023/12/04 13:12:01;;;;;;;6.00;2.40;;;;;;;;;;5018156;28;20286;-87
2023/12/04 13:14:34;;;;;;;2.80;2.60;;;;;;;;;;5018681;28;20212;-89
2023/12/04 13:17:04;;;;;;;5.37;2.30;;;;;;;;;;5016205;28;20682;-87
2023/12/04 13:19:35;;;;;;;3.23;2.97;;;;;;;;;;5015592;28;20232;-87
2023/12/04 13:22:07;;;;;;;4.13;3.20;;;;;;;;;;5016357;28;20692;-88
2023/12/04 13:24:37;;;;;;;7.47;3.77;;;;;;;;;;5016616;28;20192;-87
2023/12/04 13:27:05;;;;;;;4.90;3.57;;;;;;;;;;5016430;28;20204;-88
2023/12/04 13:29:54;;;;;;;4.03;2.90;;;;;;;;;;5015694;28;20292;-87
2023/12/04 13:32:35;;;;;;;5.50;3.53;;;;;;;;;;5003676;28;20216;-88
2023/12/04 13:35:24;;;;;;;14.53;6.30;;;;;;;;;;5016717;28;20208;-86
2023/12/04 13:37:59;;;;;;;7.33;4.57;;;;;;;;;;5015898;28;20208;-87
2023/12/04 13:40:32;;;;;;;6.47;4.27;;;;;;;;;;5017207;28;20220;-87
2023/12/04 13:45:51;;;;;;;6.17;4.23;;;;;;;;;;5016953;28;20188;-87
2023/12/04 13:48:22;;;;;;;7.67;4.63;;;;;;;;;;5017201;28;20189;-86
2023/12/04 13:50:52;;;;;;;7.37;4.50;;;;;;;;;;5018188;28;20212;-86
2023/12/04 13:53:39;;;;;;;5.17;3.97;;;;;;;;;;5021215;28;20197;-87
2023/12/04 13:56:25;;;;;;;8.03;4.47;;;;;;;;;;5023403;28;20200;-87
2023/12/04 13:58:57;;;;;;;10.13;3.97;;;;;;;;;;5026114;28;20266;-88
2023/12/04 14:01:29;;;;;;;7.00;4.87;;;;;;;;;;5030550;28;20464;-87
2023/12/04 14:04:01;;;;;;;10.43;5.20;;;;;;;;;;5026275;28;20271;-87
2023/12/04 14:06:32;;;;;;;11.33;4.80;;;;;;;;;;5028134;28;20228;-89
2023/12/04 14:09:10;;;;;;;9.73;5.43;;;;;;;;;;5025528;28;20193;-88
2023/12/04 14:11:41;;;;;;;9.30;5.63;;;;;;;;;;5019251;28;20562;-88
2023/12/04 14:14:23;;;;;;;8.87;5.83;;;;;;;;;;5016194;28;20203;-88
2023/12/04 14:17:03;;;;;;;5.70;5.17;;;;;;;;;;5017363;28;20201;-87
2023/12/04 14:19:56;;;;;;;14.23;4.83;;;;;;;;;;5017476;28;20690;-89
2023/12/04 14:22:25;;;;;;;7.13;4.70;;;;;;;;;;5017462;28;20196;-88
2023/12/04 14:25:02;;;;;;;11.20;6.13;;;;;;;;;;5019165;28;20235;-88
2023/12/04 14:30:30;;;;;;;8.07;4.37;;;;;;;;;;5015986;28;20891;-88
2023/12/04 14:33:08;;;;;;;6.03;3.47;;;;;;;;;;5016991;28;20212;-88
2023/12/04 14:35:44;;;;;;;9.77;4.80;;;;;;;;;;5016724;28;20206;-89
2023/12/04 14:38:28;;;;;;;12.43;5.43;;;;;;;;;;5014836;28;20213;-87
2023/12/04 14:41:18;;;;;;;13.37;5.03;;;;;;;;;;5015944;28;20236;-88
2023/12/04 14:44:16;;;;;;;10.10;6.00;;;;;;;;;;4997801;28;20296;-88
2023/12/04 14:47:04;;;;;;;11.17;5.83;;;;;;;;;;4916803;29;20708;-89
2023/12/04 14:49:54;;;;;;;10.70;5.73;;;;;;;;;;4977453;28;20586;-88
2023/12/04 14:52:32;;;;;;;16.67;4.70;;;;;;;;;;4995343;28;20711;-88
2023/12/04 14:58:54;;;;;;;25.10;6.50;;;;;;;;;;4995526;28;20325;-87
2023/12/04 15:21:17;;;;;;;12.17;6.87;;;;;;;;;;5014074;28;20248;-89
2023/12/04 15:24:19;;;;;;;26.10;6.43;;;;;;;;;;5010639;28;20256;-88
2023/12/04 15:26:55;;;;;;;19.03;7.27;;;;;;;;;;4997313;28;20205;-88
2023/12/04 15:29:49;;;;;;;12.10;6.97;;;;;;;;;;4997765;28;20212;-87
2023/12/04 15:34:07;;;;;;;21.60;8.43;;;;;;;;;;4528153;27;16525077;-87
2023/12/04 15:36:55;;;;;;;15.40;8.20;;;;;;;;;;5094841;28;20470;-86
2023/12/04 15:41:09;;;;;;;15.63;6.83;;;;;;;;;;5166905;27;20355;-86
2023/12/04 15:43:48;;;;;;;;;;;;;;;;;;;;;
2023/12/04 15:46:35;;;;;;;12.20;5.33;;;;;;;;;;5131070;28;20591;-88
2023/12/04 15:49:19;;;;;;;10.83;6.60;;;;;;;;;;5129705;28;20197;-87
2023/12/04 15:52:08;;;;;;;14.68;6.93;;;;;;;;;;5129033;28;20444;-87
2023/12/04 15:54:52;;;;;;;13.70;6.57;;;;;;;;;;5130358;28;20275;-89
2023/12/04 15:57:25;;;;;;;12.80;6.90;;;;;;;;;;5128956;28;20261;-89
2023/12/04 16:06:00;;;;;;;12.13;6.50;;;;;;;;;;5132218;28;20232;-87
2023/12/04 16:08:45;;;;;;;10.00;4.77;;;;;;;;;;5141106;28;20287;-88
2023/12/04 16:11:24;;;;;;;6.33;5.27;;;;;;;;;;5138263;28;20230;-89
2023/12/04 16:14:19;;;;;;;10.90;5.20;;;;;;;;;;5133157;28;20196;-88
2023/12/04 16:29:04;;;;;;;20.60;10.43;;;;;;;;;;5112486;28;20248;-85
2023/12/04 16:32:01;;;;;;;45.23;21.87;;;;;;;;;;5140898;27;20224;-89
2023/12/04 16:34:48;;;;;;;25.93;12.57;;;;;;;;;;5140406;27;20204;-87
2023/12/04 16:43:27;;;;;;;33.73;12.73;;;;;;;;;;5020754;28;20270;-88
2023/12/04 16:49:16;;;;;;;32.13;15.03;;;;;;;;;;1126542;26;20510;-88
2023/12/04 16:51:57;;;;;;;40.13;14.93;;;;;;;;;;5072979;28;20543;-89
2023/12/04 16:54:36;;;;;;;32.97;13.13;;;;;;;;;;5068137;28;20195;-86
2023/12/04 17:00:00;;;;;;;21.90;9.50;;;;;;;;;;5072082;28;20237;-89
2023/12/04 17:22:36;;;;;;;15.37;8.67;;;;;;;;;;4968931;27;4595867;-88
2023/12/04 17:25:15;;;;;;;12.67;7.73;;;;;;;;;;5113621;28;20569;-87
2023/12/04 17:27:55;;;;;;;25.37;9.73;;;;;;;;;;5109689;28;20197;-89